Time;durP1;ratioP1;P1;durP2;ratioP2;P2;SDS_P1;SDS_P2;PMS_P1;PMS_P2;Temp;Humidity;BMP_temperature;BMP_pressure;BME280_temperature;BME280_humidity;BME280_pressure;Samples;Min_cycle;Max_cycle;Signal;HPM_P1;HPM_P2
2023/07/18 00:00:47;;;;;;;3.73;3.40;;;15.70;99.90;;;;;;5011740;28;20456;-65
2023/07/18 00:03:15;;;;;;;4.43;3.10;;;15.70;99.90;;;;;;5011893;28;20559;-66
2023/07/18 00:05:42;;;;;;;3.50;3.20;;;15.70;99.90;;;;;;5011979;28;20456;-66
2023/07/18 00:08:09;;;;;;;2.83;2.60;;;15.70;99.90;;;;;;5011516;28;20443;-66
2023/07/18 00:10:36;;;;;;;3.00;2.60;;;15.70;99.90;;;;;;5011742;28;20550;-67
2023/07/18 00:13:04;;;;;;;5.97;3.33;;;15.60;99.90;;;;;;5011540;28;20473;-66
2023/07/18 00:15:31;;;;;;;3.40;3.10;;;15.60;99.90;;;;;;5009615;28;20447;-66
2023/07/18 00:17:59;;;;;;;4.87;3.20;;;15.60;99.90;;;;;;5003642;28;20450;-65
2023/07/18 00:20:27;;;;;;;2.90;2.60;;;15.60;99.90;;;;;;5007723;28;20452;-65
2023/07/18 00:22:54;;;;;;;4.00;2.47;;;15.50;99.90;;;;;;4972219;28;20485;-65
2023/07/18 00:25:21;;;;;;;4.07;2.37;;;15.50;99.90;;;;;;4972399;28;20463;-66
2023/07/18 00:27:50;;;;;;;3.10;2.67;;;15.50;99.90;;;;;;4972281;28;20459;-66
2023/07/18 00:30:18;;;;;;;3.90;3.13;;;15.50;99.90;;;;;;4972232;28;20547;-67
2023/07/18 00:32:45;;;;;;;5.10;2.73;;;15.50;99.90;;;;;;4972450;28;20523;-67
2023/07/18 00:35:13;;;;;;;2.83;2.57;;;15.40;99.90;;;;;;4971759;28;20484;-66
2023/07/18 00:37:42;;;;;;;3.40;3.10;;;15.40;99.90;;;;;;4972095;28;20458;-67
2023/07/18 00:40:11;;;;;;;3.03;2.83;;;15.40;99.90;;;;;;4972241;28;20946;-66
2023/07/18 00:42:38;;;;;;;3.57;3.23;;;15.30;99.90;;;;;;4972217;28;20482;-66
2023/07/18 00:45:07;;;;;;;2.60;2.40;;;15.30;99.90;;;;;;4972177;28;20536;-66
2023/07/18 00:47:37;;;;;;;6.07;2.77;;;15.20;99.90;;;;;;4972093;28;20873;-67
2023/07/18 00:50:07;;;;;;;5.43;2.50;;;15.20;99.90;;;;;;4972168;28;20498;-66
2023/07/18 00:52:34;;;;;;;3.17;2.10;;;15.20;99.90;;;;;;4971983;28;20480;-67
2023/07/18 00:55:03;;;;;;;2.50;2.30;;;15.20;99.90;;;;;;4971867;28;20869;-66
2023/07/18 00:57:30;;;;;;;2.73;2.50;;;15.10;99.90;;;;;;4975409;28;20466;-66
2023/07/18 00:59:57;;;;;;;4.60;2.83;;;15.10;99.90;;;;;;5011045;28;20529;-67
2023/07/18 01:02:24;;;;;;;5.00;3.30;;;15.00;99.90;;;;;;5009257;28;20476;-67
2023/07/18 01:04:51;;;;;;;3.07;2.77;;;15.00;99.90;;;;;;5011072;28;20421;-66
2023/07/18 01:07:20;;;;;;;3.53;2.77;;;15.00;99.90;;;;;;5010758;28;20451;-66
2023/07/18 01:09:47;;;;;;;4.53;2.83;;;15.00;99.90;;;;;;5011058;28;20818;-66
2023/07/18 01:12:15;;;;;;;4.77;2.70;;;14.90;99.90;;;;;;5005750;28;20478;-66
2023/07/18 01:14:42;;;;;;;3.60;2.53;;;14.90;99.90;;;;;;5008704;28;20578;-66
2023/07/18 01:17:09;;;;;;;3.20;2.90;;;14.80;99.90;;;;;;5010130;28;20836;-65
2023/07/18 01:19:36;;;;;;;2.73;2.47;;;14.80;99.90;;;;;;5007421;28;20459;-66
2023/07/18 01:22:05;;;;;;;3.07;2.50;;;14.80;99.90;;;;;;5009875;28;20490;-65
2023/07/18 01:24:32;;;;;;;3.30;3.00;;;14.80;99.90;;;;;;5010999;28;20446;-66
2023/07/18 01:26:58;;;;;;;3.57;3.27;;;14.70;99.90;;;;;;5010259;28;20573;-66
2023/07/18 01:29:25;;;;;;;3.80;2.70;;;14.70;99.90;;;;;;5003264;28;20453;-66
2023/07/18 01:31:52;;;;;;;6.00;2.93;;;14.60;99.90;;;;;;5010248;28;20472;-66
2023/07/18 01:34:19;;;;;;;3.20;2.90;;;14.60;99.90;;;;;;5010727;28;20517;-67
2023/07/18 01:36:46;;;;;;;3.00;2.60;;;14.60;99.90;;;;;;5010479;28;20973;-66
2023/07/18 01:39:14;;;;;;;4.10;2.73;;;14.60;99.90;;;;;;5010742;28;20456;-66
2023/07/18 01:41:41;;;;;;;3.70;3.40;;;14.50;99.90;;;;;;5010711;28;20480;-66
2023/07/18 01:44:08;;;;;;;5.60;3.23;;;14.40;99.90;;;;;;5010527;28;20586;-66
2023/07/18 01:46:35;;;;;;;3.77;3.40;;;14.40;99.90;;;;;;5010322;28;20454;-67
2023/07/18 01:49:02;;;;;;;3.80;3.17;;;14.40;99.90;;;;;;5010418;28;21031;-66
2023/07/18 01:51:29;;;;;;;5.00;3.20;;;14.40;99.90;;;;;;5010644;28;20450;-67
2023/07/18 01:53:56;;;;;;;6.33;3.63;;;14.30;99.90;;;;;;5010645;28;20452;-66
2023/07/18 01:56:25;;;;;;;4.40;3.07;;;14.30;99.90;;;;;;5008875;28;20558;-66
2023/07/18 01:58:51;;;;;;;3.23;2.77;;;14.30;99.90;;;;;;5010498;28;21147;-66
2023/07/18 02:01:18;;;;;;;3.77;2.93;;;14.30;99.90;;;;;;5010522;28;20459;-66
2023/07/18 02:03:46;;;;;;;4.70;3.27;;;14.30;99.90;;;;;;5010279;28;20496;-66
2023/07/18 02:06:13;;;;;;;3.80;2.87;;;14.30;99.90;;;;;;5011878;28;20966;-66
2023/07/18 02:08:40;;;;;;;2.97;2.77;;;14.20;99.90;;;;;;5013969;28;20459;-66
2023/07/18 02:11:07;;;;;;;5.30;2.97;;;14.20;99.90;;;;;;5014101;28;20451;-66
2023/07/18 02:13:35;;;;;;;2.87;2.67;;;14.20;99.90;;;;;;5013859;28;21003;-66
2023/07/18 02:16:02;;;;;;;3.83;3.37;;;14.20;99.90;;;;;;5013430;28;20455;-66
2023/07/18 02:18:29;;;;;;;3.17;2.67;;;14.10;99.90;;;;;;5013744;28;20450;-66
2023/07/18 02:20:56;;;;;;;3.20;2.90;;;14.10;99.90;;;;;;5013784;28;20451;-66
2023/07/18 02:23:23;;;;;;;4.13;3.43;;;14.10;99.90;;;;;;5013210;28;20893;-66
2023/07/18 02:25:50;;;;;;;4.70;3.07;;;14.00;99.90;;;;;;5013752;28;20446;-66
2023/07/18 02:28:16;;;;;;;4.33;3.60;;;14.00;99.90;;;;;;5013505;28;20541;-66
2023/07/18 02:30:45;;;;;;;3.10;2.87;;;14.00;99.90;;;;;;5013797;28;20842;-66
2023/07/18 02:33:11;;;;;;;3.87;3.30;;;14.00;99.90;;;;;;5013375;28;20474;-67
2023/07/18 02:35:38;;;;;;;3.20;2.90;;;13.90;99.90;;;;;;5013590;28;20497;-66
2023/07/18 02:38:05;;;;;;;2.70;2.50;;;13.80;99.90;;;;;;5013228;28;20457;-66
2023/07/18 02:40:32;;;;;;;4.07;2.77;;;13.80;99.90;;;;;;5013438;28;20461;-66
2023/07/18 02:42:59;;;;;;;2.60;2.40;;;13.80;99.90;;;;;;5013127;28;20557;-65
2023/07/18 02:45:25;;;;;;;5.20;2.90;;;13.70;99.90;;;;;;5012933;28;20581;-66
2023/07/18 02:47:54;;;;;;;4.10;3.27;;;13.70;99.90;;;;;;5013209;28;20460;-66
2023/07/18 02:50:20;;;;;;;3.70;3.40;;;13.70;99.90;;;;;;5013227;28;20450;-67
2023/07/18 02:52:48;;;;;;;3.63;2.87;;;13.70;99.90;;;;;;5005000;28;20479;-66
2023/07/18 02:55:15;;;;;;;3.30;3.10;;;13.60;99.90;;;;;;5012922;28;20481;-66
2023/07/18 02:57:42;;;;;;;2.60;2.40;;;13.70;99.90;;;;;;5012989;28;20523;-66
2023/07/18 03:00:19;;;;;;;3.70;2.83;;;13.60;99.90;;;;;;5013181;28;20450;-66
2023/07/18 03:02:47;;;;;;;5.33;3.50;;;13.60;99.90;;;;;;5012989;28;20482;-66
2023/07/18 03:05:16;;;;;;;3.53;2.70;;;13.60;99.90;;;;;;5012920;28;20491;-66
2023/07/18 03:07:44;;;;;;;4.60;3.03;;;13.60;99.90;;;;;;5011287;28;20485;-65
2023/07/18 03:10:11;;;;;;;3.10;2.90;;;13.60;99.90;;;;;;5012948;28;20519;-66
2023/07/18 03:12:40;;;;;;;4.90;3.43;;;13.60;99.90;;;;;;5012874;28;21000;-65
2023/07/18 03:15:09;;;;;;;5.17;3.17;;;13.60;99.90;;;;;;5012729;28;20453;-66
2023/07/18 03:17:36;;;;;;;3.80;3.50;;;13.50;99.90;;;;;;5012386;28;20462;-66
2023/07/18 03:20:06;;;;;;;4.87;3.30;;;13.50;99.90;;;;;;5012546;28;20454;-66
2023/07/18 03:22:34;;;;;;;3.60;2.67;;;13.50;99.90;;;;;;5011643;28;20539;-66
2023/07/18 03:25:05;;;;;;;4.97;4.13;;;13.50;99.90;;;;;;5012645;28;20490;-66
2023/07/18 03:27:32;;;;;;;3.03;2.67;;;13.50;99.90;;;;;;5012262;28;20505;-66
2023/07/18 03:29:58;;;;;;;5.20;4.00;;;13.50;99.90;;;;;;5012260;28;20533;-66
2023/07/18 03:32:25;;;;;;;5.00;4.50;;;13.40;99.90;;;;;;5012136;28;20560;-66
2023/07/18 03:34:52;;;;;;;2.80;2.60;;;13.40;99.90;;;;;;5012229;28;20450;-66
2023/07/18 03:37:19;;;;;;;5.83;3.40;;;13.40;99.90;;;;;;5012131;28;20458;-66
2023/07/18 03:39:47;;;;;;;3.83;3.53;;;13.40;99.90;;;;;;5012313;28;20457;-66
2023/07/18 03:42:14;;;;;;;4.03;3.13;;;13.30;99.90;;;;;;5012096;28;20470;-66
2023/07/18 03:44:43;;;;;;;3.03;2.77;;;13.30;99.90;;;;;;5011914;28;20492;-66
2023/07/18 03:47:10;;;;;;;4.27;3.27;;;13.30;99.90;;;;;;5011718;28;20954;-67
2023/07/18 03:49:36;;;;;;;4.80;3.60;;;13.30;99.90;;;;;;5012472;28;20453;-64
2023/07/18 03:52:04;;;;;;;5.00;3.17;;;13.30;99.90;;;;;;5011534;28;20498;-66
2023/07/18 03:54:31;;;;;;;5.20;3.00;;;13.30;99.90;;;;;;5011996;28;20884;-65
2023/07/18 03:56:59;;;;;;;4.50;3.70;;;13.30;99.90;;;;;;5011962;28;20908;-66
2023/07/18 03:59:26;;;;;;;4.10;3.70;;;13.30;99.90;;;;;;5011764;28;20458;-66
2023/07/18 04:01:53;;;;;;;3.80;3.10;;;13.30;99.90;;;;;;5011820;28;20476;-65
2023/07/18 04:04:20;;;;;;;3.20;2.90;;;13.20;99.90;;;;;;5011959;28;20573;-67
2023/07/18 04:06:46;;;;;;;4.10;3.47;;;13.20;99.90;;;;;;5011526;28;21092;-66
2023/07/18 04:09:14;;;;;;;2.90;2.70;;;13.20;99.90;;;;;;5011779;28;20460;-66
2023/07/18 04:11:41;;;;;;;7.23;3.23;;;13.20;99.90;;;;;;5012061;28;20831;-66
2023/07/18 04:14:10;;;;;;;3.30;3.00;;;13.20;99.90;;;;;;5011515;28;20455;-67
2023/07/18 04:16:37;;;;;;;8.27;3.70;;;13.20;99.90;;;;;;5011620;28;20454;-66
2023/07/18 04:19:04;;;;;;;2.93;2.73;;;13.20;99.90;;;;;;5011596;28;20455;-66
2023/07/18 04:21:31;;;;;;;3.03;2.83;;;13.20;99.90;;;;;;5011442;28;20517;-66
2023/07/18 04:23:58;;;;;;;5.57;5.10;;;13.20;99.90;;;;;;5010828;28;20807;-65
2023/07/18 04:26:25;;;;;;;3.30;2.70;;;13.20;99.90;;;;;;5011031;28;20487;-67
2023/07/18 04:28:52;;;;;;;4.87;3.13;;;13.20;99.90;;;;;;5010771;28;20508;-66
2023/07/18 04:31:20;;;;;;;4.50;3.50;;;13.20;99.90;;;;;;5011271;28;20451;-66
2023/07/18 04:33:47;;;;;;;3.60;3.00;;;13.30;99.90;;;;;;5011198;28;20454;-66
2023/07/18 04:36:14;;;;;;;3.93;3.20;;;13.20;99.90;;;;;;5011063;28;20459;-65
2023/07/18 04:38:41;;;;;;;5.50;3.57;;;13.20;99.90;;;;;;5011319;28;20481;-66
2023/07/18 04:41:08;;;;;;;5.03;4.33;;;13.20;99.90;;;;;;5011080;28;20446;-65
2023/07/18 04:43:34;;;;;;;3.40;3.10;;;13.20;99.90;;;;;;4995999;28;20459;-66
2023/07/18 04:46:01;;;;;;;3.30;2.90;;;13.20;99.90;;;;;;4990864;28;20483;-66
2023/07/18 04:48:29;;;;;;;3.57;3.23;;;13.20;99.90;;;;;;4991736;28;20459;-66
2023/07/18 04:50:59;;;;;;;4.27;3.13;;;13.20;99.90;;;;;;4991484;28;20494;-66
2023/07/18 04:53:27;;;;;;;4.50;4.10;;;13.30;99.90;;;;;;4991528;28;20478;-65
2023/07/18 04:55:55;;;;;;;7.00;4.10;;;13.30;99.90;;;;;;4991151;28;20517;-66
2023/07/18 04:58:23;;;;;;;4.10;3.63;;;13.30;99.90;;;;;;4991478;28;20432;-66
2023/07/18 05:00:51;;;;;;;3.93;3.63;;;13.40;99.90;;;;;;4991613;28;20455;-66
2023/07/18 05:03:18;;;;;;;3.70;3.30;;;13.40;99.90;;;;;;4991582;28;20848;-66
2023/07/18 05:05:46;;;;;;;3.90;3.10;;;13.50;99.90;;;;;;4991085;28;20569;-66
2023/07/18 05:08:13;;;;;;;3.57;3.03;;;13.50;99.90;;;;;;4991054;28;20450;-66
2023/07/18 05:10:40;;;;;;;4.13;3.40;;;13.60;99.90;;;;;;4991254;28;20497;-66
2023/07/18 05:13:08;;;;;;;4.10;3.70;;;13.70;99.90;;;;;;4991421;28;20901;-66
2023/07/18 05:15:36;;;;;;;5.23;3.93;;;13.70;99.90;;;;;;4991550;28;20531;-66
2023/07/18 05:18:03;;;;;;;4.10;3.70;;;13.80;99.90;;;;;;4990591;28;20462;-66
2023/07/18 05:20:30;;;;;;;3.27;3.07;;;13.90;99.90;;;;;;4991472;28;20454;-66
2023/07/18 05:22:59;;;;;;;4.20;3.63;;;14.00;99.90;;;;;;4991042;28;20563;-66
2023/07/18 05:25:26;;;;;;;3.20;2.93;;;14.10;99.90;;;;;;4990978;28;20494;-66
2023/07/18 05:27:53;;;;;;;3.17;2.97;;;14.20;99.90;;;;;;4990891;28;20539;-66
2023/07/18 05:30:20;;;;;;;4.43;3.20;;;14.20;99.90;;;;;;4991337;28;20550;-66
2023/07/18 05:32:52;;;;;;;4.00;3.40;;;14.30;99.90;;;;;;4991143;28;20476;-66
2023/07/18 05:35:19;;;;;;;4.00;3.23;;;14.50;99.90;;;;;;4991223;28;20459;-66
2023/07/18 05:37:46;;;;;;;15.20;4.50;;;14.60;99.90;;;;;;4990827;28;20454;-66
2023/07/18 05:40:15;;;;;;;5.00;3.93;;;14.70;99.90;;;;;;4991371;28;20963;-66
2023/07/18 05:42:43;;;;;;;4.80;2.90;;;14.90;99.90;;;;;;4994647;28;20470;-66
2023/07/18 05:45:10;;;;;;;3.50;3.20;;;15.10;99.90;;;;;;4994860;28;20494;-66
2023/07/18 05:47:37;;;;;;;6.83;3.30;;;15.20;99.90;;;;;;4994607;28;20452;-66
2023/07/18 05:50:06;;;;;;;4.20;3.70;;;15.40;99.90;;;;;;5002093;28;21054;-66
2023/07/18 05:52:33;;;;;;;4.00;3.60;;;15.60;99.90;;;;;;5014036;28;20478;-66
2023/07/18 05:55:00;;;;;;;4.70;4.30;;;15.80;99.90;;;;;;5014338;28;20458;-66
2023/07/18 05:57:28;;;;;;;4.00;3.27;;;16.00;99.90;;;;;;5014160;28;20457;-66
2023/07/18 05:59:55;;;;;;;3.83;3.53;;;16.10;99.90;;;;;;5014270;28;20467;-66
2023/07/18 06:02:21;;;;;;;3.90;3.60;;;16.40;99.90;;;;;;5014156;28;20476;-65
2023/07/18 06:04:49;;;;;;;3.50;3.20;;;16.60;99.90;;;;;;5010122;28;20839;-66
2023/07/18 06:07:16;;;;;;;3.93;3.03;;;16.80;99.90;;;;;;5009349;28;20454;-65
2023/07/18 06:09:43;;;;;;;4.73;3.60;;;17.00;99.90;;;;;;5012701;28;20460;-66
2023/07/18 06:12:10;;;;;;;3.60;2.90;;;17.20;99.90;;;;;;5013745;28;20478;-66
2023/07/18 06:14:38;;;;;;;5.27;3.97;;;17.40;99.90;;;;;;5013762;28;20455;-66
2023/07/18 06:17:06;;;;;;;3.50;3.20;;;17.60;99.90;;;;;;5013391;28;20828;-67
2023/07/18 06:19:32;;;;;;;4.60;3.90;;;17.80;99.90;;;;;;5013696;28;20451;-66
2023/07/18 06:21:59;;;;;;;6.03;3.10;;;18.00;99.90;;;;;;5013462;28;20488;-66
2023/07/18 06:24:26;;;;;;;4.90;3.50;;;18.20;99.90;;;;;;5013801;28;20540;-66
2023/07/18 06:26:53;;;;;;;3.93;3.37;;;18.40;99.90;;;;;;5013052;28;21016;-66
2023/07/18 06:29:21;;;;;;;3.33;2.80;;;18.60;99.90;;;;;;5013670;28;20461;-67
2023/07/18 06:31:50;;;;;;;3.90;3.60;;;18.80;99.90;;;;;;5013246;28;20564;-66
2023/07/18 06:34:17;;;;;;;3.13;2.83;;;18.90;99.90;;;;;;5012250;28;20458;-67
2023/07/18 06:36:45;;;;;;;4.13;2.90;;;19.10;99.90;;;;;;5012608;28;20445;-66
2023/07/18 06:39:13;;;;;;;4.27;3.03;;;19.20;99.90;;;;;;5008251;28;20450;-67
2023/07/18 06:41:41;;;;;;;3.40;3.10;;;19.40;99.90;;;;;;5013121;28;20487;-66
2023/07/18 06:44:09;;;;;;;2.90;2.70;;;19.50;99.90;;;;;;5013443;28;20474;-67
2023/07/18 06:46:36;;;;;;;2.60;2.40;;;19.70;99.90;;;;;;5012880;28;20522;-67
2023/07/18 06:49:04;;;;;;;4.20;3.80;;;19.80;99.90;;;;;;5013184;28;20460;-66
2023/07/18 06:51:31;;;;;;;3.60;3.37;;;19.90;99.90;;;;;;5012903;28;20847;-66
2023/07/18 06:53:57;;;;;;;2.87;2.60;;;20.10;99.90;;;;;;5013111;28;20447;-67
2023/07/18 06:56:25;;;;;;;4.57;2.67;;;20.20;99.90;;;;;;5012925;28;20451;-66
2023/07/18 06:58:51;;;;;;;2.47;2.27;;;20.30;99.70;;;;;;5013046;28;20455;-67
2023/07/18 07:01:18;;;;;;;2.53;2.33;;;20.50;99.60;;;;;;5012304;28;20546;-66
2023/07/18 07:03:45;;;;;;;5.33;2.90;;;20.60;99.40;;;;;;4990925;28;20576;-67
2023/07/18 07:06:16;;;;;;;2.67;2.47;;;20.70;99.10;;;;;;4996471;28;20499;-67
2023/07/18 07:08:43;;;;;;;3.40;2.17;;;20.90;99.10;;;;;;4994033;28;20536;-67
2023/07/18 07:11:10;;;;;;;3.43;2.40;;;21.00;97.50;;;;;;5012669;28;20957;-67
2023/07/18 07:13:38;;;;;;;3.00;2.70;;;21.10;96.40;;;;;;4991079;28;20488;-67
2023/07/18 07:16:05;;;;;;;3.57;3.20;;;21.30;97.00;;;;;;4997591;28;20455;-67
2023/07/18 07:18:32;;;;;;;6.23;2.73;;;21.50;97.00;;;;;;4999892;28;20543;-67
2023/07/18 07:21:00;;;;;;;3.00;1.93;;;21.70;96.20;;;;;;5006257;28;20471;-67
2023/07/18 07:23:28;;;;;;;2.77;2.20;;;21.80;93.70;;;;;;5002274;28;20481;-67
2023/07/18 07:25:55;;;;;;;3.13;2.83;;;21.90;92.80;;;;;;4997456;28;20504;-67
2023/07/18 07:28:23;;;;;;;2.80;2.20;;;22.10;91.80;;;;;;4998041;28;20458;-68
2023/07/18 07:30:50;;;;;;;2.60;2.40;;;22.30;91.40;;;;;;5000768;28;20477;-67
2023/07/18 07:33:17;;;;;;;3.03;2.67;;;22.30;87.50;;;;;;4997540;28;20500;-67
2023/07/18 07:35:44;;;;;;;2.40;1.70;;;22.40;89.80;;;;;;5008812;28;20831;-68
2023/07/18 07:38:11;;;;;;;2.93;2.50;;;22.40;87.40;;;;;;4997668;28;20453;-67
2023/07/18 07:40:39;;;;;;;2.93;2.57;;;22.50;89.20;;;;;;5011244;28;20516;-67
2023/07/18 07:43:06;;;;;;;2.37;2.10;;;22.70;88.30;;;;;;4999905;28;20479;-67
2023/07/18 07:45:33;;;;;;;2.50;1.97;;;22.90;83.40;;;;;;5004242;28;20486;-68
2023/07/18 07:47:59;;;;;;;3.07;2.77;;;23.00;83.40;;;;;;5005444;28;20481;-67
2023/07/18 07:50:26;;;;;;;2.73;2.30;;;23.10;80.90;;;;;;5004777;28;20455;-67
2023/07/18 07:52:53;;;;;;;2.70;2.50;;;23.30;77.00;;;;;;4987681;28;20565;-67
2023/07/18 07:55:20;;;;;;;2.50;2.17;;;23.30;79.00;;;;;;5006404;28;20885;-68
2023/07/18 07:57:48;;;;;;;2.53;2.30;;;23.30;78.10;;;;;;4997864;28;20514;-68
2023/07/18 08:00:16;;;;;;;3.63;2.27;;;23.60;82.40;;;;;;5006296;28;20818;-68
2023/07/18 08:02:43;;;;;;;2.93;2.50;;;23.70;80.50;;;;;;4999445;28;20477;-68
2023/07/18 08:05:09;;;;;;;2.20;2.00;;;23.80;78.30;;;;;;5000047;28;20810;-68
2023/07/18 08:07:36;;;;;;;2.40;1.90;;;24.00;77.50;;;;;;5003919;28;20579;-68
2023/07/18 08:10:04;;;;;;;2.77;2.47;;;24.10;78.10;;;;;;5004077;28;20546;-68
2023/07/18 08:12:30;;;;;;;3.07;2.20;;;24.30;77.80;;;;;;4993146;28;20478;-67
2023/07/18 08:14:59;;;;;;;1.93;1.83;;;24.50;77.40;;;;;;5010948;28;20946;-68
2023/07/18 08:17:26;;;;;;;2.00;1.90;;;24.50;75.70;;;;;;5003194;28;20454;-68
2023/07/18 08:19:52;;;;;;;4.83;2.53;;;24.60;76.00;;;;;;5011589;28;20460;-68
2023/07/18 08:22:19;;;;;;;2.87;2.67;;;24.60;72.10;;;;;;5011436;28;20551;-68
2023/07/18 08:24:46;;;;;;;2.50;2.30;;;24.70;75.80;;;;;;5011433;28;20546;-68
2023/07/18 08:27:13;;;;;;;2.83;2.63;;;24.80;74.70;;;;;;5011140;28;20483;-67
2023/07/18 08:29:41;;;;;;;2.73;2.53;;;25.00;73.70;;;;;;5006560;28;20543;-68
2023/07/18 08:32:10;;;;;;;3.47;2.33;;;25.10;73.30;;;;;;5011401;28;20476;-67
2023/07/18 08:34:37;;;;;;;3.40;2.30;;;25.10;71.90;;;;;;5011612;28;20478;-68
2023/07/18 08:37:05;;;;;;;2.63;2.43;;;25.10;68.60;;;;;;5011037;28;20452;-68
2023/07/18 08:39:32;;;;;;;2.50;2.30;;;25.10;69.90;;;;;;4990929;28;20465;-70
2023/07/18 08:42:00;;;;;;;2.17;1.77;;;25.20;69.90;;;;;;4991206;28;20506;-67
2023/07/18 08:44:27;;;;;;;3.13;2.67;;;25.10;68.60;;;;;;5002747;28;20463;-68
2023/07/18 08:46:54;;;;;;;3.47;2.87;;;25.20;69.00;;;;;;5007003;28;20494;-67
2023/07/18 08:49:27;;;;;;;3.10;2.77;;;25.20;67.70;;;;;;5010555;28;20460;-68
2023/07/18 08:51:54;;;;;;;2.70;2.03;;;25.20;66.90;;;;;;5009358;28;20877;-68
2023/07/18 08:54:21;;;;;;;2.80;2.37;;;25.30;67.60;;;;;;5010147;28;20449;-67
2023/07/18 08:56:49;;;;;;;3.17;2.40;;;25.40;68.20;;;;;;5009889;28;20452;-67
2023/07/18 08:59:18;;;;;;;2.90;2.70;;;25.40;67.50;;;;;;5010305;28;20452;-69
2023/07/18 09:01:48;;;;;;;3.00;2.80;;;25.50;66.30;;;;;;5010071;28;21024;-68
2023/07/18 09:04:14;;;;;;;2.17;2.07;;;25.60;67.20;;;;;;5010414;28;20458;-67
2023/07/18 09:06:49;;;;;;;2.27;2.07;;;25.70;67.50;;;;;;5000342;28;20516;-67
2023/07/18 09:09:17;;;;;;;2.67;2.47;;;25.80;67.60;;;;;;5009756;28;20526;-67
2023/07/18 09:11:55;;;;;;;3.03;2.50;;;26.00;65.50;;;;;;5009165;28;20474;-67
2023/07/18 09:14:31;;;;;;;2.53;2.20;;;26.10;66.20;;;;;;5011162;28;20820;-67
2023/07/18 09:17:00;;;;;;;3.80;2.77;;;26.00;63.90;;;;;;5013845;28;20456;-68
2023/07/18 09:19:41;;;;;;;3.20;2.33;;;26.10;64.50;;;;;;5014378;28;21046;-67
2023/07/18 09:22:12;;;;;;;2.17;2.07;;;26.10;62.20;;;;;;5012760;28;21009;-68
2023/07/18 09:24:40;;;;;;;1.63;1.53;;;26.20;61.40;;;;;;5013923;28;20450;-68
2023/07/18 09:27:08;;;;;;;2.20;2.10;;;26.10;60.80;;;;;;5013775;28;21043;-66
2023/07/18 09:29:35;;;;;;;2.50;2.30;;;26.00;60.70;;;;;;5013895;28;20837;-67
2023/07/18 09:32:03;;;;;;;3.73;2.40;;;26.10;63.50;;;;;;5013843;28;20481;-67
2023/07/18 09:34:30;;;;;;;2.50;2.27;;;26.20;63.20;;;;;;5014241;28;20466;-67
2023/07/18 09:36:58;;;;;;;2.30;1.90;;;26.30;62.10;;;;;;5013596;28;20546;-68
2023/07/18 09:39:27;;;;;;;4.47;2.20;;;26.40;62.90;;;;;;5010926;28;20947;-66
2023/07/18 09:41:55;;;;;;;3.37;2.13;;;26.50;63.00;;;;;;4998150;28;20486;-67
2023/07/18 09:44:23;;;;;;;2.70;2.50;;;26.60;62.90;;;;;;5014112;28;20453;-68
2023/07/18 09:46:50;;;;;;;3.20;2.20;;;26.60;60.50;;;;;;5013683;28;20581;-68
2023/07/18 09:49:18;;;;;;;2.80;2.60;;;26.60;60.50;;;;;;5013914;28;20541;-66
2023/07/18 09:51:49;;;;;;;2.40;2.13;;;26.60;59.70;;;;;;5013674;28;20537;-69
2023/07/18 09:54:16;;;;;;;2.50;2.30;;;26.60;60.80;;;;;;5014033;28;20458;-67
2023/07/18 09:56:46;;;;;;;3.63;2.00;;;26.50;58.50;;;;;;5013676;28;20453;-67
2023/07/18 09:59:12;;;;;;;2.17;2.07;;;26.50;59.00;;;;;;5014287;28;20443;-67
2023/07/18 10:01:39;;;;;;;2.47;2.10;;;26.40;59.00;;;;;;5014111;28;20457;-67
2023/07/18 10:04:07;;;;;;;2.50;2.30;;;26.40;60.50;;;;;;5014027;28;20456;-67
2023/07/18 10:06:34;;;;;;;2.03;1.90;;;26.30;60.40;;;;;;5013780;28;20490;-67
2023/07/18 10:09:03;;;;;;;2.60;2.40;;;26.20;60.00;;;;;;5013870;28;20455;-67
2023/07/18 10:11:30;;;;;;;2.37;2.17;;;26.20;59.20;;;;;;5013418;28;20493;-67
2023/07/18 10:14:14;;;;;;;2.83;2.20;;;26.20;59.30;;;;;;5013810;28;20891;-67
2023/07/18 10:16:43;;;;;;;2.37;2.17;;;26.20;58.90;;;;;;5013348;28;20965;-67
2023/07/18 10:19:18;;;;;;;2.40;2.20;;;26.20;59.90;;;;;;5013830;28;20813;-67
2023/07/18 10:21:46;;;;;;;2.30;2.20;;;26.20;59.00;;;;;;5013501;28;20491;-66
2023/07/18 10:24:28;;;;;;;3.23;2.90;;;26.00;59.30;;;;;;5013651;28;20457;-67
2023/07/18 10:26:58;;;;;;;4.00;2.57;;;26.10;60.60;;;;;;5012415;28;20531;-67
2023/07/18 10:29:31;;;;;;;2.60;2.17;;;26.10;60.50;;;;;;5013913;28;20453;-67
2023/07/18 10:31:59;;;;;;;3.53;2.80;;;26.20;61.70;;;;;;5012603;28;20898;-67
2023/07/18 10:34:26;;;;;;;2.43;2.23;;;26.20;59.10;;;;;;5013217;28;20453;-67
2023/07/18 10:36:57;;;;;;;4.00;2.70;;;26.10;59.80;;;;;;5013137;28;20532;-67
2023/07/18 10:39:38;;;;;;;4.03;2.50;;;26.10;58.60;;;;;;5013317;28;20876;-67
2023/07/18 10:42:07;;;;;;;5.50;2.50;;;26.20;58.40;;;;;;5013550;28;20474;-67
2023/07/18 10:44:37;;;;;;;2.73;2.53;;;26.20;60.60;;;;;;5013470;28;20449;-67
2023/07/18 10:47:13;;;;;;;2.90;2.60;;;26.20;59.60;;;;;;5012912;28;21032;-67
2023/07/18 10:49:40;;;;;;;3.00;2.33;;;26.20;58.70;;;;;;5013221;28;20477;-67
2023/07/18 10:52:07;;;;;;;3.50;2.63;;;26.30;59.20;;;;;;5012883;28;21011;-67
2023/07/18 10:54:34;;;;;;;2.63;2.33;;;26.40;60.30;;;;;;5013008;28;20826;-67
2023/07/18 10:57:01;;;;;;;2.17;1.90;;;26.50;61.50;;;;;;5012919;28;20458;-67
2023/07/18 10:59:28;;;;;;;3.50;3.03;;;26.50;59.20;;;;;;5007863;28;20953;-66
2023/07/18 11:02:00;;;;;;;3.60;2.73;;;26.50;57.00;;;;;;4997136;28;20478;-67
2023/07/18 11:04:28;;;;;;;2.40;2.13;;;26.60;58.40;;;;;;5012597;28;21042;-66
2023/07/18 11:06:55;;;;;;;3.57;2.50;;;26.60;59.00;;;;;;5012656;28;20490;-67
2023/07/18 11:09:22;;;;;;;2.90;2.63;;;26.70;60.60;;;;;;5011471;28;20454;-67
2023/07/18 11:11:49;;;;;;;4.10;2.57;;;26.70;57.90;;;;;;5011756;28;20465;-67
2023/07/18 11:14:16;;;;;;;4.73;3.47;;;26.70;58.50;;;;;;5012715;28;20451;-68
2023/07/18 11:16:43;;;;;;;2.80;2.60;;;26.80;59.30;;;;;;5012574;28;20457;-67
2023/07/18 11:19:13;;;;;;;3.30;3.00;;;26.90;59.30;;;;;;5012413;28;20455;-67
2023/07/18 11:21:40;;;;;;;2.83;2.57;;;27.00;57.80;;;;;;4993885;28;20494;-67
2023/07/18 11:24:08;;;;;;;3.60;2.97;;;27.00;58.50;;;;;;4992300;28;20451;-66
2023/07/18 11:26:35;;;;;;;2.60;2.40;;;27.00;58.50;;;;;;4992242;28;20484;-68
2023/07/18 11:29:03;;;;;;;3.03;2.83;;;27.00;59.80;;;;;;4992752;28;20460;-67
2023/07/18 11:31:31;;;;;;;2.90;2.47;;;27.00;60.20;;;;;;4992304;28;20462;-67
2023/07/18 11:34:00;;;;;;;2.93;2.63;;;27.10;60.20;;;;;;4991999;28;20454;-67
2023/07/18 11:36:30;;;;;;;5.70;2.40;;;27.00;57.00;;;;;;5008125;28;20451;-67
2023/07/18 11:39:00;;;;;;;2.73;2.53;;;27.00;57.40;;;;;;4971646;28;20462;-68
2023/07/18 11:41:34;;;;;;;3.63;2.87;;;27.00;58.00;;;;;;4972923;28;20463;-68
2023/07/18 11:44:02;;;;;;;2.93;2.60;;;27.00;59.10;;;;;;4972891;28;20460;-67
2023/07/18 11:46:36;;;;;;;4.57;3.93;;;27.00;58.30;;;;;;4972532;28;20458;-67
2023/07/18 11:49:03;;;;;;;2.30;2.10;;;27.10;58.50;;;;;;4972616;28;20459;-67
2023/07/18 11:51:33;;;;;;;4.37;2.90;;;27.20;58.80;;;;;;4972353;28;20511;-68
2023/07/18 11:54:00;;;;;;;4.37;2.80;;;27.40;58.00;;;;;;4972898;28;20453;-67
2023/07/18 11:56:27;;;;;;;3.60;3.30;;;27.50;58.80;;;;;;4972245;28;20452;-67
2023/07/18 11:58:54;;;;;;;3.30;3.00;;;27.50;57.60;;;;;;4972569;28;20541;-68
2023/07/18 12:01:21;;;;;;;3.00;2.70;;;27.50;57.70;;;;;;4972435;28;20902;-67
2023/07/18 12:03:48;;;;;;;2.70;2.27;;;27.60;59.10;;;;;;4972200;28;20458;-67
2023/07/18 12:06:14;;;;;;;3.33;3.03;;;27.60;57.60;;;;;;4972177;28;21232;-66
2023/07/18 12:08:42;;;;;;;4.00;2.60;;;27.60;57.40;;;;;;4972463;28;20489;-67
2023/07/18 12:11:10;;;;;;;3.50;2.83;;;27.70;57.60;;;;;;4972769;28;20453;-67
2023/07/18 12:13:37;;;;;;;3.23;3.03;;;27.90;56.10;;;;;;5010985;28;20469;-68
2023/07/18 12:16:04;;;;;;;5.10;2.57;;;27.90;55.80;;;;;;5011128;28;20876;-67
2023/07/18 12:18:31;;;;;;;4.03;3.27;;;27.90;56.20;;;;;;5010340;28;20820;-68
2023/07/18 12:20:59;;;;;;;5.70;3.10;;;28.00;57.00;;;;;;5011169;28;20449;-68
2023/07/18 12:23:26;;;;;;;2.40;2.27;;;28.10;57.90;;;;;;5011175;28;21575;-67
2023/07/18 12:25:55;;;;;;;2.90;2.70;;;28.20;58.10;;;;;;5011065;28;20456;-68
2023/07/18 12:28:22;;;;;;;4.03;2.77;;;28.40;58.20;;;;;;5011102;28;20579;-68
2023/07/18 12:30:48;;;;;;;3.67;3.47;;;28.40;56.00;;;;;;5010942;28;20455;-68
2023/07/18 12:33:15;;;;;;;3.20;3.00;;;28.50;57.80;;;;;;5011107;28;20517;-67
2023/07/18 12:35:42;;;;;;;2.63;2.43;;;28.50;55.70;;;;;;5011072;28;20453;-67
2023/07/18 12:38:10;;;;;;;2.97;2.60;;;28.60;57.10;;;;;;5010432;28;20454;-68
2023/07/18 12:40:37;;;;;;;3.67;2.80;;;28.70;55.80;;;;;;5010898;28;20461;-68
2023/07/18 12:43:07;;;;;;;2.60;2.40;;;28.70;55.90;;;;;;5010737;28;20480;-68
2023/07/18 12:45:34;;;;;;;3.10;2.90;;;28.70;56.40;;;;;;5011053;28;20450;-68
2023/07/18 12:48:01;;;;;;;5.80;4.00;;;28.90;56.10;;;;;;5010468;28;20498;-68
2023/07/18 12:50:29;;;;;;;3.30;3.10;;;29.00;54.80;;;;;;5010503;28;20838;-67